Time;durP1;ratioP1;P1;durP2;ratioP2;P2;SDS_P1;SDS_P2;PMS_P1;PMS_P2;Temp;Humidity;BMP_temperature;BMP_pressure;BME280_temperature;BME280_humidity;BME280_pressure;Samples;Min_cycle;Max_cycle;Signal;HPM_P1;HPM_P2
2021/03/16 00:00:59;;;;;;;21.52;5.22;;;;;;;;;;5060773;28;20048;-86
2021/03/16 00:03:49;;;;;;;10.47;5.57;;;;;;;;;;5064147;28;20040;-90
2021/03/16 00:07:20;;;;;;;16.00;8.23;;;8.00;99.90;;;;;;5042959;28;20333;-85
2021/03/16 00:09:48;;;;;;;13.27;5.90;;;;;;;;;;5071736;28;20049;-84
2021/03/16 00:12:18;;;;;;;17.23;4.78;;;;;;;;;;5067686;28;20052;-90
2021/03/16 00:14:57;;;;;;;22.20;7.10;;;;;;;;;;5074864;28;20053;-90
2021/03/16 00:17:33;;;;;;;16.95;5.50;;;;;;;;;;5056806;28;20052;-86
2021/03/16 00:20:03;;;;;;;15.55;5.65;;;7.70;99.90;;;;;;5080998;28;20063;-89
2021/03/16 00:22:35;;;;;;;14.55;5.60;;;;;;;;;;5068186;28;20057;-81
2021/03/16 00:25:20;;;;;;;15.82;6.30;;;;;;;;;;5083798;28;20059;-83
2021/03/16 00:27:55;;;;;;;24.13;6.13;;;;;;;;;;5048209;28;20056;-83
2021/03/16 00:30:29;;;;;;;24.52;9.30;;;7.50;99.90;;;;;;5039066;28;20044;-84
2021/03/16 00:33:35;;;;;;;22.08;7.25;;;7.40;99.90;;;;;;5055518;28;20056;-82
2021/03/16 00:36:06;;;;;;;30.10;7.80;;;;;;;;;;5045927;28;20048;-86
2021/03/16 00:38:36;;;;;;;12.25;5.78;;;;;;;;;;5075027;28;20052;-88
2021/03/16 00:41:10;;;;;;;30.10;8.13;;;;;;;;;;5071893;28;20061;-88
2021/03/16 00:43:52;;;;;;;25.67;6.90;;;7.40;99.90;;;;;;5069228;28;20055;-87
2021/03/16 00:46:28;;;;;;;17.30;5.97;;;7.50;99.90;;;;;;5065057;28;20068;-87
2021/03/16 00:49:07;;;;;;;15.20;9.35;;;;;;;;;;5063465;28;20060;-89
2021/03/16 00:51:38;;;;;;;26.05;8.07;;;;;;;;;;5070827;28;20060;-84
2021/03/16 00:54:12;;;;;;;20.67;8.05;;;7.40;99.90;;;;;;5039654;28;20048;-83
2021/03/16 00:56:42;;;;;;;22.48;6.80;;;;;;;;;;5044233;28;20073;-86
2021/03/16 00:59:24;;;;;;;25.77;9.18;;;7.40;99.90;;;;;;5072752;28;20048;-86
2021/03/16 01:01:58;;;;;;;20.30;8.18;;;;;;;;;;5061144;28;20045;-86
2021/03/16 01:04:53;;;;;;;24.55;6.85;;;7.50;99.90;;;;;;5061190;28;20049;-86
2021/03/16 01:07:54;;;;;;;18.13;5.50;;;7.40;99.90;;;;;;5065436;28;20036;-89
2021/03/16 01:10:28;;;;;;;17.55;6.72;;;7.20;99.90;;;;;;5054615;28;20051;-85
2021/03/16 01:13:05;;;;;;;23.95;8.25;;;;;;;;;;5046992;28;20057;-89
2021/03/16 01:15:35;;;;;;;25.38;7.72;;;;;;;;;;5066374;28;20049;-89
2021/03/16 01:18:05;;;;;;;25.10;7.65;;;;;;;;;;5070013;28;20052;-87
2021/03/16 01:20:34;;;;;;;19.60;5.75;;;7.30;99.90;;;;;;5061889;28;20049;-84
2021/03/16 01:23:03;;;;;;;22.58;6.55;;;7.30;99.90;;;;;;5063940;28;20059;-86
2021/03/16 01:25:35;;;;;;;19.15;5.80;;;;;;;;;;5055581;28;20067;-89
2021/03/16 01:28:17;;;;;;;13.05;4.88;;;7.20;99.90;;;;;;5071608;28;20056;-89
2021/03/16 01:31:46;;;;;;;21.55;7.50;;;7.30;99.90;;;;;;5047233;28;20036;-88
2021/03/16 01:34:25;;;;;;;27.00;7.00;;;7.10;99.90;;;;;;5059713;28;20045;-86
2021/03/16 01:36:55;;;;;;;26.58;8.48;;;;;;;;;;5053188;28;20072;-88
2021/03/16 01:39:35;;;;;;;15.93;6.55;;;7.10;99.90;;;;;;5066465;28;20059;-85
2021/03/16 01:42:05;;;;;;;22.27;7.40;;;;;;;;;;5083375;28;20064;-88
2021/03/16 01:44:48;;;;;;;21.58;6.45;;;7.20;99.90;;;;;;5087053;28;20053;-86
2021/03/16 01:47:27;;;;;;;31.70;8.13;;;;;;;;;;5082658;28;20056;-92
2021/03/16 01:50:05;;;;;;;32.63;7.05;;;7.30;99.90;;;;;;5064363;28;20056;-90
2021/03/16 01:52:50;;;;;;;27.70;9.52;;;;;;;;;;5055324;28;20052;-88
2021/03/16 01:55:23;;;;;;;23.70;5.20;;;7.40;99.90;;;;;;4717349;28;10000402;-88
2021/03/16 01:57:59;;;;;;;13.90;6.95;;;;;;;;;;5047350;28;20062;-90
2021/03/16 02:01:01;;;;;;;15.32;7.15;;;;;;;;;;5070021;28;20062;-87
2021/03/16 02:03:54;;;;;;;19.63;6.28;;;;;;;;;;5068984;28;20057;-87
2021/03/16 02:07:39;;;;;;;20.38;6.25;;;7.60;99.90;;;;;;5055175;28;20049;-86
2021/03/16 02:15:14;;;;;;;20.83;8.48;;;7.60;99.90;;;;;;5058116;28;20059;-88
2021/03/16 02:18:48;;;;;;;17.23;5.95;;;7.60;99.90;;;;;;5060886;28;20048;-89
2021/03/16 02:21:51;;;;;;;29.50;7.97;;;;;;;;;;5057587;28;20045;-87
2021/03/16 02:24:38;;;;;;;24.15;6.22;;;;;;;;;;5052401;28;20057;-86
2021/03/16 02:27:28;;;;;;;19.80;6.43;;;7.60;99.90;;;;;;5077678;28;20480;-88
2021/03/16 02:30:47;;;;;;;11.95;6.20;;;7.60;99.90;;;;;;5082054;28;20066;-89
2021/03/16 02:34:11;;;;;;;23.73;7.75;;;7.60;99.90;;;;;;5033271;28;20048;-90
2021/03/16 02:37:28;;;;;;;16.48;7.20;;;7.60;99.90;;;;;;5055719;28;20045;-87
2021/03/16 02:40:29;;;;;;;20.52;7.68;;;7.60;99.90;;;;;;5057044;28;20049;-91
2021/03/16 02:43:22;;;;;;;18.38;7.82;;;;;;;;;;5082474;28;20053;-84
2021/03/16 02:51:38;;;;;;;19.25;6.60;;;7.50;99.90;;;;;;5079524;28;20045;-87
2021/03/16 02:54:24;;;;;;;19.60;5.80;;;;;;;;;;5067200;28;20059;-87
2021/03/16 02:57:30;;;;;;;24.65;6.13;;;7.60;99.90;;;;;;5072037;28;20047;-86
2021/03/16 03:00:19;;;;;;;18.55;6.57;;;7.70;99.90;;;;;;5077780;28;20047;-85
2021/03/16 03:03:15;;;;;;;15.30;7.07;;;7.70;99.90;;;;;;5073565;28;20138;-89
2021/03/16 03:06:07;;;;;;;16.58;5.35;;;7.70;99.90;;;;;;5078929;28;20408;-89
2021/03/16 03:09:06;;;;;;;18.27;6.45;;;;;;;;;;5075744;28;20052;-89
2021/03/16 03:11:58;;;;;;;23.27;6.03;;;;;;;;;;5081228;28;20045;-89
2021/03/16 03:14:48;;;;;;;22.58;6.78;;;;;;;;;;5052694;28;20058;-88
2021/03/16 03:17:41;;;;;;;19.27;6.07;;;7.70;99.90;;;;;;5086812;28;20056;-90
2021/03/16 03:21:05;;;;;;;20.60;6.75;;;7.90;99.90;;;;;;5074624;28;20053;-90
2021/03/16 03:24:39;;;;;;;30.02;9.80;;;7.80;99.90;;;;;;5074575;28;20058;-85
2021/03/16 03:28:11;;;;;;;17.10;7.70;;;7.90;99.90;;;;;;5054532;28;20052;-91
2021/03/16 03:31:15;;;;;;;18.85;7.82;;;7.90;99.90;;;;;;5050585;28;20373;-88
2021/03/16 03:34:57;;;;;;;26.33;6.43;;;7.90;99.90;;;;;;5067373;28;20060;-86
2021/03/16 03:37:53;;;;;;;24.33;7.82;;;7.90;99.90;;;;;;5075248;28;20044;-87
2021/03/16 03:41:00;;;;;;;24.88;8.85;;;7.90;99.90;;;;;;5064395;28;20053;-88
2021/03/16 03:43:55;;;;;;;20.77;5.13;;;;;;;;;;5061273;28;20068;-88
2021/03/16 03:46:46;;;;;;;34.47;9.60;;;8.00;99.90;;;;;;5054122;28;20053;-89
2021/03/16 03:49:56;;;;;;;18.67;6.50;;;7.80;99.90;;;;;;5068512;28;20045;-88
2021/03/16 03:52:43;;;;;;;15.65;5.30;;;;;;;;;;5070569;28;20067;-90
2021/03/16 03:55:30;;;;;;;10.63;5.18;;;7.70;99.90;;;;;;5063848;28;20037;-90
2021/03/16 03:58:59;;;;;;;13.38;6.03;;;;;;;;;;5034297;28;20064;-90
2021/03/16 04:02:19;;;;;;;24.70;7.57;;;7.80;99.90;;;;;;5051915;28;20051;-89
2021/03/16 04:06:08;;;;;;;22.17;6.93;;;;;;;;;;5013986;28;20042;-87
2021/03/16 04:08:58;;;;;;;29.55;6.95;;;;;;;;;;4987147;28;20049;-90
2021/03/16 04:11:47;;;;;;;16.42;6.60;;;;;;;;;;4997095;28;20058;-87
2021/03/16 04:14:43;;;;;;;18.15;7.78;;;;;;;;;;4972757;28;20061;-89
2021/03/16 04:17:32;;;;;;;13.25;4.78;;;;;;;;;;4986515;28;20481;-89
2021/03/16 04:20:26;;;;;;;11.55;5.43;;;;;;;;;;5014979;28;20510;-87
2021/03/16 04:23:14;;;;;;;18.35;6.35;;;;;;;;;;5008049;28;20038;-89
2021/03/16 04:26:07;;;;;;;16.13;5.32;;;;;;;;;;4992869;28;20051;-91
2021/03/16 04:32:06;;;;;;;22.67;7.00;;;;;;;;;;5033393;28;20050;-90
2021/03/16 04:34:54;;;;;;;21.80;5.70;;;;;;;;;;5048708;28;20049;-88
2021/03/16 04:37:51;;;;;;;16.20;5.47;;;;;;;;;;5038590;28;20057;-91
2021/03/16 04:40:45;;;;;;;12.07;6.05;;;8.00;99.90;;;;;;5050731;28;20053;-90
2021/03/16 04:43:33;;;;;;;20.08;5.70;;;;;;;;;;5005050;28;20041;-89
2021/03/16 04:46:20;;;;;;;20.42;8.57;;;;;;;;;;5051109;28;20051;-90
2021/03/16 04:49:06;;;;;;;30.55;9.65;;;;;;;;;;5017519;28;20511;-88
2021/03/16 04:52:01;;;;;;;20.70;7.55;;;8.00;99.90;;;;;;5032812;28;20059;-90
2021/03/16 04:54:49;;;;;;;19.75;6.63;;;;;;;;;;5026300;28;20053;-90
2021/03/16 04:57:46;;;;;;;20.00;5.65;;;;;;;;;;5056866;28;20064;-88
2021/03/16 05:00:36;;;;;;;20.33;5.03;;;;;;;;;;5053155;28;20052;-90
2021/03/16 05:03:42;;;;;;;26.30;5.60;;;;;;;;;;5086991;22;20603;-89
2021/03/16 05:06:36;;;;;;;17.60;6.27;;;7.90;99.90;;;;;;5040619;28;20147;-88
2021/03/16 05:10:18;;;;;;;17.27;4.57;;;8.00;99.90;;;;;;5027498;28;20053;-89
2021/03/16 05:13:28;;;;;;;23.55;6.22;;;;;;;;;;5037841;28;20068;-88
2021/03/16 05:16:55;;;;;;;20.85;8.40;;;7.90;99.90;;;;;;5043971;28;20064;-89
2021/03/16 05:19:44;;;;;;;24.10;7.22;;;8.00;99.90;;;;;;5048214;28;20053;-91
2021/03/16 05:22:50;;;;;;;21.80;7.07;;;7.90;99.90;;;;;;5039324;28;20068;-89
2021/03/16 05:25:40;;;;;;;20.30;5.50;;;;;;;;;;5052966;28;20050;-88
2021/03/16 05:28:29;;;;;;;11.15;4.80;;;;;;;;;;5024710;28;20520;-86
2021/03/16 05:31:27;;;;;;;20.70;5.90;;;;;;;;;;5031970;28;20527;-87
2021/03/16 05:34:17;;;;;;;20.35;6.75;;;7.90;99.90;;;;;;5052665;28;20056;-88
2021/03/16 05:37:12;;;;;;;19.20;5.65;;;;;;;;;;5054707;28;20057;-90
2021/03/16 05:40:01;;;;;;;23.90;5.95;;;;;;;;;;5042312;28;20154;-89
2021/03/16 05:42:54;;;;;;;23.02;7.55;;;7.90;99.90;;;;;;5037947;28;20052;-90
2021/03/16 05:45:59;;;;;;;14.00;6.03;;;8.20;99.90;;;;;;5038177;28;20053;-83
2021/03/16 05:48:51;;;;;;;21.80;5.80;;;8.10;99.90;;;;;;5037552;28;20057;-89
2021/03/16 05:51:39;;;;;;;26.35;5.25;;;;;;;;;;5029695;28;20037;-89
2021/03/16 05:54:42;;;;;;;13.32;6.05;;;;;;;;;;5025663;28;20616;-87
2021/03/16 05:57:52;;;;;;;12.70;5.75;;;8.00;99.90;;;;;;5038877;28;20377;-89
2021/03/16 06:01:58;;;;;;;22.15;5.93;;;8.10;99.90;;;;;;5028590;28;20055;-87
2021/03/16 06:04:51;;;;;;;27.55;7.22;;;8.00;99.90;;;;;;5041508;28;20048;-89
2021/03/16 06:07:38;;;;;;;15.80;5.40;;;;;;;;;;5021843;28;20416;-87
2021/03/16 06:10:53;;;;;;;15.07;5.70;;;8.10;99.90;;;;;;5040844;28;20045;-89
2021/03/16 06:13:58;;;;;;;15.60;7.53;;;;;;;;;;5004391;28;20046;-91
2021/03/16 06:17:05;;;;;;;23.67;7.55;;;8.10;99.90;;;;;;5035369;28;20049;-91
2021/03/16 06:20:17;;;;;;;17.33;6.43;;;;;;;;;;5051118;28;20053;-89
2021/03/16 06:28:43;;;;;;;19.73;5.88;;;8.00;99.90;;;;;;4928325;29;20036;-89
2021/03/16 06:31:48;;;;;;;21.15;5.53;;;;;;;;;;4906240;29;20055;-86
2021/03/16 06:35:00;;;;;;;21.95;8.30;;;8.00;99.90;;;;;;4954799;29;20039;-88
2021/03/16 06:38:23;;;;;;;27.48;9.65;;;8.50;99.90;;;;;;4956953;29;20059;-90
2021/03/16 06:42:29;;;;;;;23.05;8.38;;;8.10;99.90;;;;;;5048290;22;20056;-91
2021/03/16 06:45:32;;;;;;;18.58;6.70;;;8.00;99.90;;;;;;5074299;28;20063;-91
2021/03/16 06:49:03;;;;;;;21.17;6.32;;;;;;;;;;5073000;28;20053;-92
2021/03/16 07:01:43;;;;;;;27.17;6.40;;;8.10;99.90;;;;;;5113151;22;20056;-90
2021/03/16 07:05:00;;;;;;;21.20;6.20;;;8.10;99.90;;;;;;5050628;28;20128;-91
2021/03/16 07:07:53;;;;;;;17.13;6.30;;;8.00;99.90;;;;;;5041072;28;20059;-92
2021/03/16 07:10:51;;;;;;;20.15;6.80;;;;;;;;;;5070656;28;20045;-91
2021/03/16 07:14:21;;;;;;;26.90;6.45;;;8.00;99.90;;;;;;5062279;28;20107;-90
2021/03/16 07:17:31;;;;;;;27.00;8.38;;;;;;;;;;5072597;28;20037;-91
2021/03/16 07:20:27;;;;;;;;;;;8.00;99.90;;;;;;5066730;28;20040;-94
2021/03/16 07:23:15;;;;;;;24.60;7.72;;;8.00;99.90;;;;;;5065954;28;19967;-90
2021/03/16 07:30:54;;;;;;;23.35;8.02;;;;;;;;;;5073063;28;20043;-91
2021/03/16 07:33:45;;;;;;;23.00;5.78;;;;;;;;;;5063302;28;20063;-91
2021/03/16 07:37:03;;;;;;;14.70;5.07;;;;;;;;;;5066101;28;20059;-90
2021/03/16 07:40:24;;;;;;;22.20;7.25;;;8.00;99.90;;;;;;5035248;28;20049;-92
2021/03/16 07:43:18;;;;;;;22.43;6.13;;;;;;;;;;5050550;28;20045;-88
2021/03/16 07:46:24;;;;;;;32.95;5.63;;;8.10;99.90;;;;;;5058846;28;20455;-88
2021/03/16 07:49:34;;;;;;;16.20;5.88;;;8.10;99.90;;;;;;5056873;28;20400;-89
2021/03/16 07:52:26;;;;;;;18.67;6.40;;;;;;;;;;5065388;28;20051;-90
2021/03/16 07:56:03;;;;;;;26.33;7.90;;;8.20;99.90;;;;;;5056866;28;20197;-89
2021/03/16 07:58:55;;;;;;;19.35;7.88;;;8.20;99.90;;;;;;5061194;28;20049;-90
2021/03/16 08:02:02;;;;;;;20.98;6.65;;;;;;;;;;5041143;28;20045;-87
2021/03/16 08:04:55;;;;;;;18.15;6.22;;;8.10;99.90;;;;;;5040536;28;20079;-91
2021/03/16 08:08:00;;;;;;;16.35;5.10;;;;;;;;;;5033531;28;20060;-84
2021/03/16 08:10:53;;;;;;;24.25;7.65;;;;;;;;;;5050038;28;20060;-90
2021/03/16 08:13:40;;;;;;;22.15;8.85;;;;;;;;;;5057226;28;20440;-85
2021/03/16 08:16:35;;;;;;;22.17;7.95;;;;;;;;;;5049064;28;20045;-88
2021/03/16 08:19:36;;;;;;;20.58;6.40;;;8.50;99.90;;;;;;5056381;28;20312;-89
2021/03/16 08:22:27;;;;;;;25.52;8.05;;;8.50;99.90;;;;;;5028704;28;20052;-87
2021/03/16 08:25:19;;;;;;;23.38;6.70;;;8.60;99.90;;;;;;5060576;28;20053;-88
2021/03/16 08:28:08;;;;;;;26.48;8.73;;;;;;;;;;5027705;28;20053;-88
2021/03/16 08:30:54;;;;;;;19.27;6.15;;;;;;;;;;5028625;28;20058;-88
2021/03/16 08:33:42;;;;;;;21.98;5.65;;;;;;;;;;5028368;28;20060;-87
2021/03/16 08:36:48;;;;;;;20.80;7.72;;;8.80;99.90;;;;;;5021186;28;20511;-87
2021/03/16 08:39:36;;;;;;;26.30;7.97;;;;;;;;;;5029132;28;20052;-88
2021/03/16 08:42:24;;;;;;;15.07;8.70;;;8.90;99.90;;;;;;5045794;28;20053;-86
2021/03/16 08:45:11;;;;;;;21.25;9.05;;;;;;;;;;5038215;28;20404;-87
2021/03/16 08:47:59;;;;;;;15.48;7.65;;;9.00;99.90;;;;;;5032854;28;20042;-87
2021/03/16 08:50:49;;;;;;;28.75;9.13;;;9.00;99.90;;;;;;5041423;28;20052;-86
2021/03/16 08:53:35;;;;;;;17.75;5.50;;;;;;;;;;5046185;28;20041;-88
2021/03/16 08:56:25;;;;;;;19.40;7.68;;;9.30;99.90;;;;;;5042842;28;20061;-89
2021/03/16 08:59:12;;;;;;;25.80;7.97;;;9.40;99.90;;;;;;5040909;28;20057;-89
2021/03/16 09:02:18;;;;;;;21.90;9.52;;;9.50;99.90;;;;;;5043189;28;20052;-89
2021/03/16 09:05:27;;;;;;;26.17;7.95;;;9.50;99.90;;;;;;5041722;28;20057;-87
2021/03/16 09:08:13;;;;;;;17.58;6.78;;;;;;;;;;5049675;28;20056;-88
2021/03/16 09:11:02;;;;;;;21.23;7.80;;;;;;;;;;5048481;28;20048;-89
2021/03/16 09:14:17;;;;;;;21.10;7.93;;;10.00;99.90;;;;;;5068144;28;20040;-88
2021/03/16 09:17:05;;;;;;;26.80;8.57;;;10.10;99.90;;;;;;5051817;28;20049;-88
2021/03/16 09:19:53;;;;;;;28.02;9.85;;;;;;;;;;5036679;28;20059;-88
2021/03/16 09:22:40;;;;;;;23.00;7.65;;;;;;;;;;5058407;28;20043;-88
2021/03/16 09:25:30;;;;;;;21.25;8.00;;;;;;;;;;5038598;28;20053;-86
2021/03/16 09:28:17;;;;;;;22.92;9.27;;;;;;;;;;5028538;28;20059;-88
2021/03/16 09:31:04;;;;;;;19.52;7.15;;;;;;;;;;5056019;28;20056;-84
2021/03/16 09:33:58;;;;;;;15.02;7.22;;;;;;;;;;5041476;28;20049;-91
2021/03/16 09:36:56;;;;;;;15.77;7.30;;;;;;;;;;5054954;28;20052;-90
2021/03/16 09:39:55;;;;;;;18.40;10.50;;;;;;;;;;5075522;28;20065;-91
2021/03/16 09:42:52;;;;;;;19.27;7.00;;;;;;;;;;5039857;28;20029;-87
2021/03/16 09:45:21;;;;;;;19.33;7.43;;;;;;;;;;5028148;28;20035;-89
2021/03/16 09:47:53;;;;;;;17.17;7.80;;;;;;;;;;5062686;28;20051;-88
2021/03/16 09:50:23;;;;;;;15.50;7.72;;;;;;;;;;5064825;28;20045;-88
2021/03/16 09:52:59;;;;;;;16.27;10.30;;;;;;;;;;5024162;28;20064;-89
2021/03/16 09:55:31;;;;;;;19.35;9.52;;;;;;;;;;5050988;28;20036;-88
2021/03/16 09:57:59;;;;;;;17.77;9.93;;;;;;;;;;5039037;28;20051;-91
2021/03/16 10:00:33;;;;;;;21.13;9.45;;;;;;;;;;5027464;28;20041;-90
2021/03/16 10:03:10;;;;;;;19.00;10.10;;;;;;;;;;5052935;22;20041;-91
2021/03/16 10:05:47;;;;;;;21.50;8.88;;;11.00;99.90;;;;;;5048579;28;20038;-93
2021/03/16 10:08:25;;;;;;;17.08;7.50;;;11.20;99.90;;;;;;5029791;28;20033;-90
2021/03/16 10:10:56;;;;;;;21.75;9.10;;;;;;;;;;5023539;28;20050;-91
2021/03/16 10:13:30;;;;;;;18.63;7.43;;;;;;;;;;5049806;28;20042;-88
2021/03/16 10:16:13;;;;;;;17.63;8.25;;;11.50;99.90;;;;;;5016613;28;20042;-87
2021/03/16 10:18:46;;;;;;;14.30;7.95;;;11.50;99.90;;;;;;5045583;28;20048;-87
2021/03/16 10:21:16;;;;;;;22.25;7.95;;;;;;;;;;5029479;28;20057;-87
2021/03/16 10:23:50;;;;;;;15.88;10.32;;;11.60;99.90;;;;;;5023058;28;20052;-88
2021/03/16 10:26:22;;;;;;;17.13;8.63;;;;;;;;;;5013690;28;20034;-89
2021/03/16 10:28:52;;;;;;;16.02;7.13;;;;;;;;;;5035953;28;20056;-90
2021/03/16 10:31:26;;;;;;;15.52;6.20;;;;;;;;;;5016123;28;20060;-89
2021/03/16 10:33:56;;;;;;;15.75;7.22;;;;;;;;;;5039844;28;20043;-88
2021/03/16 10:36:29;;;;;;;21.17;7.10;;;;;;;;;;5033754;28;20046;-89
2021/03/16 10:38:59;;;;;;;11.27;6.25;;;;;;;;;;5023332;28;20044;-88
2021/03/16 10:41:29;;;;;;;13.43;5.43;;;;;;;;;;5026652;28;20034;-90
2021/03/16 10:44:01;;;;;;;8.98;4.95;;;;;;;;;;5016972;28;20044;-89
2021/03/16 10:46:32;;;;;;;13.75;6.18;;;;;;;;;;5029558;28;20073;-91
2021/03/16 10:49:01;;;;;;;8.27;4.73;;;;;;;;;;5031705;28;20050;-89
2021/03/16 10:51:34;;;;;;;6.55;3.65;;;;;;;;;;5048618;28;20033;-89
2021/03/16 10:54:03;;;;;;;11.10;3.92;;;;;;;;;;5047838;28;20056;-90
2021/03/16 10:56:36;;;;;;;10.73;3.13;;;;;;;;;;5044285;28;20041;-88
2021/03/16 10:59:11;;;;;;;7.90;4.10;;;;;;;;;;5028188;28;20054;-88
2021/03/16 11:01:43;;;;;;;11.10;4.68;;;;;;;;;;5044642;28;21014;-89
2021/03/16 11:04:19;;;;;;;6.88;3.90;;;;;;;;;;5038387;28;20128;-90
2021/03/16 11:07:01;;;;;;;10.63;4.15;;;;;;;;;;5040466;28;20053;-89
2021/03/16 11:09:34;;;;;;;7.03;3.08;;;;;;;;;;4996332;28;20046;-90
2021/03/16 11:12:04;;;;;;;8.70;3.90;;;;;;;;;;5039899;28;20050;-91
2021/03/16 11:14:35;;;;;;;10.52;3.72;;;;;;;;;;5041903;28;20413;-88
2021/03/16 11:17:08;;;;;;;6.88;2.95;;;;;;;;;;5025248;28;20100;-88
2021/03/16 11:19:39;;;;;;;6.10;3.00;;;;;;;;;;5027771;28;20065;-88
2021/03/16 11:22:12;;;;;;;11.10;3.38;;;;;;;;;;5017734;28;20046;-88
2021/03/16 11:24:40;;;;;;;5.43;3.80;;;;;;;;;;5028418;28;20064;-89
2021/03/16 11:27:12;;;;;;;15.48;3.88;;;;;;;;;;5010306;28;20051;-89
2021/03/16 11:29:43;;;;;;;8.98;4.32;;;;;;;;;;5031468;28;20518;-89
2021/03/16 11:32:11;;;;;;;11.98;3.97;;;;;;;;;;5023755;28;20056;-88
2021/03/16 11:35:12;;;;;;;9.82;4.35;;;;;;;;;;5035298;28;20049;-88
2021/03/16 11:37:59;;;;;;;6.10;3.60;;;;;;;;;;5029387;28;20042;-90
2021/03/16 11:40:59;;;;;;;11.77;3.90;;;;;;;;;;5046433;28;20469;-90
2021/03/16 11:43:45;;;;;;;6.63;3.35;;;;;;;;;;5014569;28;20289;-89
2021/03/16 11:46:51;;;;;;;7.10;2.75;;;;;;;;;;5039996;28;20046;-89
2021/03/16 11:49:39;;;;;;;8.60;3.45;;;;;;;;;;5046807;28;20057;-88
2021/03/16 11:52:29;;;;;;;5.93;3.00;;;;;;;;;;5021843;28;20053;-88
2021/03/16 11:55:18;;;;;;;10.60;3.53;;;;;;;;;;5032359;28;20051;-87
2021/03/16 11:58:07;;;;;;;7.90;2.93;;;;;;;;;;5044636;28;20401;-89
2021/03/16 12:00:58;;;;;;;8.25;3.88;;;13.80;99.90;;;;;;5035638;28;20287;-89
2021/03/16 12:03:45;;;;;;;;;;;13.70;99.90;;;;;;5042404;28;20058;-90
2021/03/16 12:06:37;;;;;;;5.97;2.28;;;;;;;;;;5030054;28;20515;-90
2021/03/16 12:09:33;;;;;;;5.82;3.50;;;;;;;;;;5034568;28;20053;-90
2021/03/16 12:12:20;;;;;;;7.28;2.83;;;;;;;;;;5019426;28;20053;-88
2021/03/16 12:15:08;;;;;;;7.15;2.85;;;;;;;;;;5036821;28;20049;-89
2021/03/16 12:17:55;;;;;;;10.98;2.85;;;;;;;;;;5032499;28;20061;-90
2021/03/16 12:20:42;;;;;;;5.93;2.80;;;;;;;;;;5039719;28;20050;-89
2021/03/16 12:23:38;;;;;;;5.70;2.97;;;;;;;;;;5034347;28;20141;-87
2021/03/16 12:26:33;;;;;;;8.40;2.70;;;;;;;;;;5023682;28;20054;-90
2021/03/16 12:29:26;;;;;;;4.60;2.30;;;;;;;;;;5030358;28;20049;-89
2021/03/16 12:32:12;;;;;;;11.32;2.75;;;;;;;;;;5009906;28;20054;-88
2021/03/16 12:35:00;;;;;;;4.18;2.65;;;;;;;;;;5032726;28;20046;-86
2021/03/16 12:37:49;;;;;;;6.20;2.75;;;;;;;;;;5026369;28;20057;-89
2021/03/16 12:40:46;;;;;;;5.65;3.03;;;;;;;;;;5025213;28;20053;-89
2021/03/16 12:43:44;;;;;;;8.13;2.47;;;;;;;;;;5013851;28;20615;-87
2021/03/16 12:46:39;;;;;;;;;;;13.50;99.90;;;;;;5027136;28;20057;-88
2021/03/16 12:49:34;;;;;;;5.15;2.63;;;;;;;;;;5012098;28;19925;-88
2021/03/16 12:52:25;;;;;;;7.22;3.70;;;;;;;;;;5033672;28;20061;-89
2021/03/16 12:55:15;;;;;;;8.55;2.50;;;;;;;;;;5041733;28;20054;-89
2021/03/16 12:58:03;;;;;;;5.07;2.80;;;;;;;;;;5014995;28;20052;-88
2021/03/16 13:00:54;;;;;;;;;;;13.50;99.90;;;;;;5026396;28;20061;-88
2021/03/16 13:03:45;;;;;;;4.68;2.72;;;;;;;;;;5049068;28;19925;-87
2021/03/16 13:06:35;;;;;;;3.47;2.15;;;;;;;;;;5011424;28;20169;-88
2021/03/16 13:09:22;;;;;;;4.97;2.20;;;;;;;;;;5030637;28;20050;-89
2021/03/16 13:12:12;;;;;;;9.32;2.42;;;;;;;;;;5032444;28;20054;-85
2021/03/16 13:14:59;;;;;;;2.28;1.95;;;;;;;;;;5018821;28;20072;-84
2021/03/16 13:17:45;;;;;;;5.03;2.22;;;;;;;;;;5032579;28;20061;-85
2021/03/16 13:20:34;;;;;;;5.43;2.55;;;;;;;;;;5031973;28;20053;-91
2021/03/16 13:23:26;;;;;;;5.85;3.00;;;;;;;;;;5042962;28;20057;-87
2021/03/16 13:26:12;;;;;;;6.22;2.22;;;;;;;;;;5048686;28;20809;-85
2021/03/16 13:29:02;;;;;;;7.28;1.75;;;;;;;;;;5023108;28;20037;-85
2021/03/16 13:31:49;;;;;;;6.03;3.08;;;;;;;;;;5025732;28;20058;-85
2021/03/16 13:34:36;;;;;;;4.22;2.55;;;;;;;;;;5029003;28;20056;-86
2021/03/16 13:37:23;;;;;;;4.95;2.67;;;;;;;;;;5027457;28;20049;-85
2021/03/16 13:40:09;;;;;;;5.38;2.92;;;;;;;;;;4688696;28;10000503;-85
2021/03/16 13:42:57;;;;;;;5.30;3.17;;;;;;;;;;5033141;28;20295;-86
2021/03/16 13:45:45;;;;;;;6.10;2.40;;;;;;;;;;5027365;28;20054;-87
2021/03/16 13:48:35;;;;;;;3.75;2.25;;;;;;;;;;5033101;28;20056;-87
2021/03/16 13:51:25;;;;;;;5.60;2.92;;;;;;;;;;5028447;28;20069;-88
2021/03/16 13:54:12;;;;;;;5.35;2.60;;;;;;;;;;5022806;28;20268;-86
2021/03/16 13:56:59;;;;;;;8.63;2.90;;;;;;;;;;5014347;28;20045;-87
2021/03/16 13:59:45;;;;;;;11.23;3.10;;;;;;;;;;5028919;28;20429;-86
2021/03/16 14:02:31;;;;;;;7.28;2.83;;;;;;;;;;5028736;28;20589;-85
2021/03/16 14:05:19;;;;;;;5.78;2.35;;;13.30;99.90;;;;;;5038190;28;20053;-85
2021/03/16 14:08:06;;;;;;;4.63;2.20;;;;;;;;;;5017343;28;20077;-87
2021/03/16 14:10:52;;;;;;;6.45;2.05;;;;;;;;;;5028884;28;20054;-84
2021/03/16 14:13:45;;;;;;;3.65;2.20;;;;;;;;;;5028860;28;20056;-86
2021/03/16 14:16:32;;;;;;;3.28;2.35;;;;;;;;;;5027628;28;20521;-87
2021/03/16 14:19:20;;;;;;;3.03;1.80;;;;;;;;;;5025427;28;20108;-85
2021/03/16 14:22:07;;;;;;;5.78;2.80;;;;;;;;;;5019298;28;20042;-87
2021/03/16 14:25:14;;;;;;;4.88;2.22;;;13.70;99.90;;;;;;5040915;28;20052;-91
2021/03/16 14:28:01;;;;;;;1.98;1.75;;;;;;;;;;5016471;28;20052;-89
2021/03/16 14:30:50;;;;;;;4.35;1.92;;;;;;;;;;5040211;28;20399;-89
2021/03/16 14:33:39;;;;;;;5.55;2.25;;;;;;;;;;5028115;28;20069;-88
2021/03/16 14:36:48;;;;;;;2.58;1.73;;;;;;;;;;5050274;28;20068;-89
2021/03/16 14:39:41;;;;;;;;;;;13.80;99.90;;;;;;5033080;28;20048;-88
2021/03/16 14:42:32;;;;;;;1.42;1.30;;;;;;;;;;5029741;28;19932;-89
2021/03/16 14:45:20;;;;;;;2.92;2.10;;;;;;;;;;5027929;28;20066;-90
2021/03/16 14:48:12;;;;;;;5.00;1.98;;;;;;;;;;5020240;28;20042;-88
2021/03/16 14:51:00;;;;;;;2.88;1.85;;;;;;;;;;5017696;28;20505;-89
2021/03/16 14:53:46;;;;;;;4.03;1.92;;;13.90;99.90;;;;;;5012214;28;20050;-89
2021/03/16 14:56:33;;;;;;;3.97;1.60;;;;;;;;;;5002912;28;20056;-90
2021/03/16 14:59:20;;;;;;;4.80;1.77;;;;;;;;;;4999220;28;20046;-89
2021/03/16 15:02:06;;;;;;;3.60;2.10;;;13.70;99.90;;;;;;5018558;28;20057;-88
2021/03/16 15:04:53;;;;;;;3.58;2.25;;;;;;;;;;4998887;28;20129;-90
2021/03/16 15:07:40;;;;;;;2.33;1.67;;;;;;;;;;4993977;28;20069;-89
2021/03/16 15:10:26;;;;;;;7.45;2.95;;;;;;;;;;5026510;28;20061;-88
2021/03/16 15:13:16;;;;;;;3.25;2.20;;;;;;;;;;4993389;28;20061;-90
2021/03/16 15:16:05;;;;;;;5.95;2.35;;;;;;;;;;5000615;28;20064;-90
2021/03/16 15:18:53;;;;;;;4.07;2.17;;;;;;;;;;5002354;28;20621;-92
2021/03/16 15:21:51;;;;;;;5.63;2.70;;;;;;;;;;5003103;28;20053;-94
2021/03/16 15:24:44;;;;;;;2.92;1.95;;;;;;;;;;5043333;28;20045;-93
2021/03/16 15:27:41;;;;;;;3.57;2.53;;;;;;;;;;5015967;28;20054;-93
2021/03/16 15:30:55;;;;;;;4.93;2.22;;;;;;;;;;5032582;28;20068;-94
2021/03/16 15:33:54;;;;;;;5.10;3.08;;;;;;;;;;5040459;28;20056;-92
2021/03/16 15:36:58;;;;;;;7.72;2.83;;;;;;;;;;5049658;28;20038;-91
2021/03/16 15:40:14;;;;;;;3.90;2.10;;;14.10;99.90;;;;;;5014135;28;20046;-92
2021/03/16 15:43:30;;;;;;;5.20;2.33;;;;;;;;;;5013320;28;20061;-92
2021/03/16 15:46:30;;;;;;;5.10;2.55;;;;;;;;;;4666282;28;9999759;-93
2021/03/16 15:50:34;;;;;;;9.07;2.67;;;14.10;99.90;;;;;;5376447;22;20042;-94
2021/03/16 15:54:16;;;;;;;4.43;2.58;;;;;;;;;;5090311;28;20049;-96
2021/03/16 16:02:29;;;;;;;4.57;2.33;;;;;;;;;;5015449;28;20046;-95
2021/03/16 16:06:04;;;;;;;5.40;3.03;;;;;;;;;;5054824;22;20058;-93
2021/03/16 16:09:55;;;;;;;5.13;2.60;;;;;;;;;;5110983;28;20040;-93
2021/03/16 16:13:42;;;;;;;;;;;;;;;;;;;;;
2021/03/16 16:16:49;;;;;;;6.45;2.67;;;;;;;;;;5073466;28;20052;-92
2021/03/16 16:20:38;;;;;;;3.70;2.67;;;14.30;99.90;;;;;;5072046;28;20066;-91
2021/03/16 16:27:52;;;;;;;4.05;2.15;;;;;;;;;;5061044;28;20045;-93
2021/03/16 16:31:32;;;;;;;4.32;2.20;;;;;;;;;;5086575;28;20062;-91
2021/03/16 16:34:58;;;;;;;5.03;1.90;;;;;;;;;;5083644;28;20032;-93
2021/03/16 16:38:39;;;;;;;3.80;1.95;;;;;;;;;;5089391;28;20052;-92
2021/03/16 16:41:33;;;;;;;5.70;1.90;;;;;;;;;;5092892;22;20051;-91
2021/03/16 16:44:51;;;;;;;4.60;1.98;;;;;;;;;;5110597;28;20027;-92
2021/03/16 16:47:47;;;;;;;3.70;1.75;;;;;;;;;;5089313;28;20052;-90
2021/03/16 16:51:08;;;;;;;4.63;2.17;;;;;;;;;;5088489;28;20057;-92
2021/03/16 16:54:04;;;;;;;3.00;1.65;;;;;;;;;;5107893;28;20052;-91
2021/03/16 16:57:32;;;;;;;;;;;;;;;;;;;;;
2021/03/16 17:00:50;;;;;;;8.02;2.20;;;;;;;;;;5104192;28;20048;-93
2021/03/16 17:03:44;;;;;;;5.40;2.08;;;;;;;;;;5089567;28;20044;-90
2021/03/16 17:06:52;;;;;;;2.90;2.22;;;;;;;;;;5090801;28;20052;-88
2021/03/16 17:09:52;;;;;;;3.42;2.15;;;;;;;;;;5106617;28;20074;-89
2021/03/16 17:12:58;;;;;;;5.57;2.33;;;;;;;;;;5097661;28;20067;-92